sensor_id;sensor_type;location;lat;lon;timestamp;P1;durP1;ratioP1;P2;durP2;ratioP2
73585;SDS011;61865;50.232;18.614;2023-04-27T00:01:12;18.35;;;9.15;;
73585;SDS011;61865;50.232;18.614;2023-04-27T00:03:34;21.67;;;9.15;;
73585;SDS011;61865;50.232;18.614;2023-04-27T00:05:56;15.25;;;8.50;;
73585;SDS011;61865;50.232;18.614;2023-04-27T00:08:18;17.98;;;8.63;;
73585;SDS011;61865;50.232;18.614;2023-04-27T00:10:41;19.25;;;8.95;;
73585;SDS011;61865;50.232;18.614;2023-04-27T00:13:03;19.70;;;9.55;;
73585;SDS011;61865;50.232;18.614;2023-04-27T00:15:25;16.17;;;9.30;;
73585;SDS011;61865;50.232;18.614;2023-04-27T00:17:47;15.40;;;7.63;;
73585;SDS011;61865;50.232;18.614;2023-04-27T00:20:09;21.38;;;8.32;;
73585;SDS011;61865;50.232;18.614;2023-04-27T00:22:31;18.42;;;10.15;;
73585;SDS011;61865;50.232;18.614;2023-04-27T00:24:53;20.08;;;8.50;;
73585;SDS011;61865;50.232;18.614;2023-04-27T00:27:16;20.05;;;9.25;;
73585;SDS011;61865;50.232;18.614;2023-04-27T00:29:38;20.23;;;10.75;;
73585;SDS011;61865;50.232;18.614;2023-04-27T00:32:01;24.95;;;10.45;;
73585;SDS011;61865;50.232;18.614;2023-04-27T00:34:23;17.95;;;9.93;;
73585;SDS011;61865;50.232;18.614;2023-04-27T00:36:45;25.23;;;10.02;;
73585;SDS011;61865;50.232;18.614;2023-04-27T00:39:07;21.90;;;9.88;;
73585;SDS011;61865;50.232;18.614;2023-04-27T00:41:29;17.83;;;10.20;;
73585;SDS011;61865;50.232;18.614;2023-04-27T00:43:53;22.20;;;10.25;;
73585;SDS011;61865;50.232;18.614;2023-04-27T00:46:14;13.20;;;8.90;;
73585;SDS011;61865;50.232;18.614;2023-04-27T00:48:38;20.15;;;9.52;;
73585;SDS011;61865;50.232;18.614;2023-04-27T00:51:01;18.20;;;9.20;;
73585;SDS011;61865;50.232;18.614;2023-04-27T00:53:23;21.58;;;10.13;;
73585;SDS011;61865;50.232;18.614;2023-04-27T00:55:45;24.77;;;9.98;;
73585;SDS011;61865;50.232;18.614;2023-04-27T00:58:07;23.98;;;9.57;;
73585;SDS011;61865;50.232;18.614;2023-04-27T01:00:30;14.77;;;8.73;;
73585;SDS011;61865;50.232;18.614;2023-04-27T01:02:53;23.23;;;9.80;;
73585;SDS011;61865;50.232;18.614;2023-04-27T01:05:16;21.00;;;9.27;;
73585;SDS011;61865;50.232;18.614;2023-04-27T01:07:38;17.27;;;9.30;;
73585;SDS011;61865;50.232;18.614;2023-04-27T01:10:00;15.93;;;9.20;;
73585;SDS011;61865;50.232;18.614;2023-04-27T01:12:23;18.05;;;9.48;;
73585;SDS011;61865;50.232;18.614;2023-04-27T01:14:45;16.70;;;9.80;;
73585;SDS011;61865;50.232;18.614;2023-04-27T01:17:08;16.70;;;9.30;;
73585;SDS011;61865;50.232;18.614;2023-04-27T01:19:30;16.67;;;8.90;;
73585;SDS011;61865;50.232;18.614;2023-04-27T01:21:52;17.25;;;8.77;;
73585;SDS011;61865;50.232;18.614;2023-04-27T01:24:15;17.00;;;8.05;;
73585;SDS011;61865;50.232;18.614;2023-04-27T01:26:37;21.23;;;9.23;;
73585;SDS011;61865;50.232;18.614;2023-04-27T01:28:59;15.40;;;8.02;;
73585;SDS011;61865;50.232;18.614;2023-04-27T01:31:21;21.48;;;9.30;;
73585;SDS011;61865;50.232;18.614;2023-04-27T01:33:43;20.42;;;8.88;;
73585;SDS011;61865;50.232;18.614;2023-04-27T01:36:05;16.42;;;8.60;;
73585;SDS011;61865;50.232;18.614;2023-04-27T01:38:28;13.93;;;7.97;;
73585;SDS011;61865;50.232;18.614;2023-04-27T01:40:52;16.05;;;9.07;;
73585;SDS011;61865;50.232;18.614;2023-04-27T01:43:14;19.45;;;9.25;;
73585;SDS011;61865;50.232;18.614;2023-04-27T01:45:36;20.13;;;9.02;;
73585;SDS011;61865;50.232;18.614;2023-04-27T01:47:58;17.60;;;9.02;;
73585;SDS011;61865;50.232;18.614;2023-04-27T01:50:20;12.27;;;8.30;;
73585;SDS011;61865;50.232;18.614;2023-04-27T01:52:42;15.05;;;8.52;;
73585;SDS011;61865;50.232;18.614;2023-04-27T01:55:04;19.63;;;9.55;;
73585;SDS011;61865;50.232;18.614;2023-04-27T01:57:28;14.85;;;9.30;;
73585;SDS011;61865;50.232;18.614;2023-04-27T01:59:50;14.95;;;8.70;;
73585;SDS011;61865;50.232;18.614;2023-04-27T02:02:12;14.13;;;8.05;;
73585;SDS011;61865;50.232;18.614;2023-04-27T02:04:34;16.33;;;8.50;;
73585;SDS011;61865;50.232;18.614;2023-04-27T02:06:56;16.05;;;7.78;;
73585;SDS011;61865;50.232;18.614;2023-04-27T02:09:17;20.98;;;7.97;;
73585;SDS011;61865;50.232;18.614;2023-04-27T02:11:40;14.02;;;7.28;;
73585;SDS011;61865;50.232;18.614;2023-04-27T02:14:03;15.65;;;7.78;;
73585;SDS011;61865;50.232;18.614;2023-04-27T02:16:25;16.52;;;8.05;;
73585;SDS011;61865;50.232;18.614;2023-04-27T02:18:46;14.80;;;8.63;;
73585;SDS011;61865;50.232;18.614;2023-04-27T02:21:08;14.00;;;7.72;;
73585;SDS011;61865;50.232;18.614;2023-04-27T02:23:31;14.25;;;7.72;;
73585;SDS011;61865;50.232;18.614;2023-04-27T02:25:53;17.92;;;7.70;;
73585;SDS011;61865;50.232;18.614;2023-04-27T02:28:15;16.20;;;7.72;;
73585;SDS011;61865;50.232;18.614;2023-04-27T02:30:38;15.10;;;8.23;;
73585;SDS011;61865;50.232;18.614;2023-04-27T02:33:00;16.83;;;8.10;;
73585;SDS011;61865;50.232;18.614;2023-04-27T02:35:22;19.50;;;7.80;;
73585;SDS011;61865;50.232;18.614;2023-04-27T02:37:44;16.92;;;7.55;;
73585;SDS011;61865;50.232;18.614;2023-04-27T02:40:06;16.58;;;8.35;;
73585;SDS011;61865;50.232;18.614;2023-04-27T02:42:29;15.65;;;7.82;;
73585;SDS011;61865;50.232;18.614;2023-04-27T02:44:51;18.65;;;9.00;;
73585;SDS011;61865;50.232;18.614;2023-04-27T02:47:14;20.10;;;10.98;;
73585;SDS011;61865;50.232;18.614;2023-04-27T02:49:37;29.45;;;13.85;;
73585;SDS011;61865;50.232;18.614;2023-04-27T02:51:59;37.72;;;16.38;;
73585;SDS011;61865;50.232;18.614;2023-04-27T02:54:21;31.83;;;17.60;;
73585;SDS011;61865;50.232;18.614;2023-04-27T02:56:43;45.67;;;19.27;;
73585;SDS011;61865;50.232;18.614;2023-04-27T02:59:04;39.65;;;20.80;;
73585;SDS011;61865;50.232;18.614;2023-04-27T03:01:26;38.40;;;21.40;;
73585;SDS011;61865;50.232;18.614;2023-04-27T03:03:50;36.90;;;19.73;;
73585;SDS011;61865;50.232;18.614;2023-04-27T03:06:11;31.88;;;17.52;;
73585;SDS011;61865;50.232;18.614;2023-04-27T03:08:34;35.92;;;17.20;;
73585;SDS011;61865;50.232;18.614;2023-04-27T03:10:55;29.98;;;16.75;;
73585;SDS011;61865;50.232;18.614;2023-04-27T03:13:17;32.35;;;15.85;;
73585;SDS011;61865;50.232;18.614;2023-04-27T03:15:39;28.48;;;14.20;;
73585;SDS011;61865;50.232;18.614;2023-04-27T03:18:01;31.90;;;15.13;;
73585;SDS011;61865;50.232;18.614;2023-04-27T03:20:30;25.65;;;15.07;;
73585;SDS011;61865;50.232;18.614;2023-04-27T03:22:52;28.15;;;16.60;;
73585;SDS011;61865;50.232;18.614;2023-04-27T03:25:14;32.42;;;16.70;;
73585;SDS011;61865;50.232;18.614;2023-04-27T03:27:36;28.58;;;16.33;;
73585;SDS011;61865;50.232;18.614;2023-04-27T03:29:57;26.02;;;15.50;;
73585;SDS011;61865;50.232;18.614;2023-04-27T03:32:19;21.48;;;13.13;;
73585;SDS011;61865;50.232;18.614;2023-04-27T03:34:41;24.55;;;13.25;;
73585;SDS011;61865;50.232;18.614;2023-04-27T03:37:04;21.02;;;12.15;;
73585;SDS011;61865;50.232;18.614;2023-04-27T03:39:26;20.88;;;12.63;;
73585;SDS011;61865;50.232;18.614;2023-04-27T03:41:48;20.45;;;10.45;;
73585;SDS011;61865;50.232;18.614;2023-04-27T03:44:10;22.83;;;10.70;;
73585;SDS011;61865;50.232;18.614;2023-04-27T03:46:31;18.23;;;10.18;;
73585;SDS011;61865;50.232;18.614;2023-04-27T03:48:53;19.77;;;11.07;;
73585;SDS011;61865;50.232;18.614;2023-04-27T03:51:15;21.73;;;12.35;;
73585;SDS011;61865;50.232;18.614;2023-04-27T03:53:38;16.67;;;10.95;;
73585;SDS011;61865;50.232;18.614;2023-04-27T03:56:00;18.98;;;10.98;;
73585;SDS011;61865;50.232;18.614;2023-04-27T03:58:23;17.67;;;11.38;;
73585;SDS011;61865;50.232;18.614;2023-04-27T04:00:44;18.20;;;10.43;;
73585;SDS011;61865;50.232;18.614;2023-04-27T04:03:06;18.05;;;10.75;;
73585;SDS011;61865;50.232;18.614;2023-04-27T04:05:28;20.15;;;11.60;;
73585;SDS011;61865;50.232;18.614;2023-04-27T04:07:50;17.50;;;10.13;;
73585;SDS011;61865;50.232;18.614;2023-04-27T04:10:14;15.30;;;9.32;;
73585;SDS011;61865;50.232;18.614;2023-04-27T04:12:35;19.27;;;10.18;;
73585;SDS011;61865;50.232;18.614;2023-04-27T04:14:57;17.33;;;9.88;;
73585;SDS011;61865;50.232;18.614;2023-04-27T04:17:19;17.85;;;10.02;;
73585;SDS011;61865;50.232;18.614;2023-04-27T04:19:41;20.52;;;10.90;;
73585;SDS011;61865;50.232;18.614;2023-04-27T04:22:03;19.73;;;9.75;;
73585;SDS011;61865;50.232;18.614;2023-04-27T04:24:25;17.65;;;10.13;;
73585;SDS011;61865;50.232;18.614;2023-04-27T04:26:48;24.13;;;11.63;;
73585;SDS011;61865;50.232;18.614;2023-04-27T04:29:11;33.30;;;14.93;;
73585;SDS011;61865;50.232;18.614;2023-04-27T04:31:32;40.25;;;21.58;;
73585;SDS011;61865;50.232;18.614;2023-04-27T04:33:55;81.72;;;42.10;;
73585;SDS011;61865;50.232;18.614;2023-04-27T04:36:16;81.45;;;40.53;;
73585;SDS011;61865;50.232;18.614;2023-04-27T04:38:38;83.97;;;39.85;;
73585;SDS011;61865;50.232;18.614;2023-04-27T04:41:00;49.88;;;25.80;;
73585;SDS011;61865;50.232;18.614;2023-04-27T04:43:23;42.78;;;23.58;;
73585;SDS011;61865;50.232;18.614;2023-04-27T04:45:45;30.52;;;14.93;;
73585;SDS011;61865;50.232;18.614;2023-04-27T04:48:07;21.13;;;11.95;;
73585;SDS011;61865;50.232;18.614;2023-04-27T04:50:29;25.08;;;11.05;;
73585;SDS011;61865;50.232;18.614;2023-04-27T04:52:51;17.27;;;10.02;;
73585;SDS011;61865;50.232;18.614;2023-04-27T04:55:13;20.35;;;10.10;;
73585;SDS011;61865;50.232;18.614;2023-04-27T04:57:34;19.55;;;11.35;;
73585;SDS011;61865;50.232;18.614;2023-04-27T04:59:58;23.05;;;11.02;;
73585;SDS011;61865;50.232;18.614;2023-04-27T05:02:20;24.08;;;11.85;;
73585;SDS011;61865;50.232;18.614;2023-04-27T05:04:42;24.27;;;11.38;;
73585;SDS011;61865;50.232;18.614;2023-04-27T05:07:04;21.98;;;10.70;;
73585;SDS011;61865;50.232;18.614;2023-04-27T05:09:26;17.65;;;9.02;;
73585;SDS011;61865;50.232;18.614;2023-04-27T05:11:48;23.95;;;10.35;;
73585;SDS011;61865;50.232;18.614;2023-04-27T05:14:10;20.70;;;9.48;;
73585;SDS011;61865;50.232;18.614;2023-04-27T05:16:33;20.05;;;9.05;;
73585;SDS011;61865;50.232;18.614;2023-04-27T05:18:55;17.48;;;8.85;;
73585;SDS011;61865;50.232;18.614;2023-04-27T05:21:17;14.38;;;8.30;;
73585;SDS011;61865;50.232;18.614;2023-04-27T05:23:39;18.75;;;9.18;;
73585;SDS011;61865;50.232;18.614;2023-04-27T05:26:10;18.10;;;8.75;;
73585;SDS011;61865;50.232;18.614;2023-04-27T05:28:35;14.07;;;7.97;;
73585;SDS011;61865;50.232;18.614;2023-04-27T05:30:58;15.65;;;7.93;;
73585;SDS011;61865;50.232;18.614;2023-04-27T05:33:22;20.35;;;9.13;;
73585;SDS011;61865;50.232;18.614;2023-04-27T05:35:44;20.98;;;9.60;;
73585;SDS011;61865;50.232;18.614;2023-04-27T05:38:05;20.77;;;8.63;;
73585;SDS011;61865;50.232;18.614;2023-04-27T05:40:27;21.73;;;9.30;;
73585;SDS011;61865;50.232;18.614;2023-04-27T05:42:49;28.15;;;10.70;;
73585;SDS011;61865;50.232;18.614;2023-04-27T05:45:11;26.35;;;10.90;;
73585;SDS011;61865;50.232;18.614;2023-04-27T05:47:33;25.20;;;11.05;;
73585;SDS011;61865;50.232;18.614;2023-04-27T05:49:56;24.30;;;9.73;;
73585;SDS011;61865;50.232;18.614;2023-04-27T05:52:18;26.38;;;11.02;;
73585;SDS011;61865;50.232;18.614;2023-04-27T05:54:44;22.70;;;10.52;;
73585;SDS011;61865;50.232;18.614;2023-04-27T05:57:06;20.77;;;8.10;;
73585;SDS011;61865;50.232;18.614;2023-04-27T05:59:28;18.40;;;7.57;;
73585;SDS011;61865;50.232;18.614;2023-04-27T06:01:50;17.67;;;7.20;;
73585;SDS011;61865;50.232;18.614;2023-04-27T06:04:12;26.25;;;12.57;;
73585;SDS011;61865;50.232;18.614;2023-04-27T06:06:35;18.05;;;7.90;;
73585;SDS011;61865;50.232;18.614;2023-04-27T06:08:57;17.52;;;8.43;;
73585;SDS011;61865;50.232;18.614;2023-04-27T06:11:19;15.93;;;6.95;;
73585;SDS011;61865;50.232;18.614;2023-04-27T06:13:41;10.18;;;5.95;;
73585;SDS011;61865;50.232;18.614;2023-04-27T06:16:03;15.70;;;7.00;;
73585;SDS011;61865;50.232;18.614;2023-04-27T06:18:25;10.73;;;5.90;;
73585;SDS011;61865;50.232;18.614;2023-04-27T06:20:47;12.70;;;6.38;;
73585;SDS011;61865;50.232;18.614;2023-04-27T06:23:10;12.70;;;6.00;;
73585;SDS011;61865;50.232;18.614;2023-04-27T06:25:32;14.38;;;5.70;;
73585;SDS011;61865;50.232;18.614;2023-04-27T06:27:54;12.18;;;6.32;;
73585;SDS011;61865;50.232;18.614;2023-04-27T06:30:16;14.18;;;5.32;;
73585;SDS011;61865;50.232;18.614;2023-04-27T06:32:38;11.93;;;6.80;;
73585;SDS011;61865;50.232;18.614;2023-04-27T06:35:00;19.15;;;6.40;;
73585;SDS011;61865;50.232;18.614;2023-04-27T06:37:22;12.30;;;5.93;;
73585;SDS011;61865;50.232;18.614;2023-04-27T06:39:45;12.50;;;5.78;;
73585;SDS011;61865;50.232;18.614;2023-04-27T06:42:07;17.13;;;6.55;;
73585;SDS011;61865;50.232;18.614;2023-04-27T06:44:29;13.82;;;6.07;;
73585;SDS011;61865;50.232;18.614;2023-04-27T06:46:51;15.68;;;6.88;;
73585;SDS011;61865;50.232;18.614;2023-04-27T06:49:13;10.20;;;5.40;;
73585;SDS011;61865;50.232;18.614;2023-04-27T06:51:35;13.13;;;5.90;;
73585;SDS011;61865;50.232;18.614;2023-04-27T06:53:56;15.10;;;5.60;;
73585;SDS011;61865;50.232;18.614;2023-04-27T06:56:20;17.50;;;6.32;;
73585;SDS011;61865;50.232;18.614;2023-04-27T06:58:41;8.70;;;5.60;;
73585;SDS011;61865;50.232;18.614;2023-04-27T07:01:03;13.15;;;5.32;;
73585;SDS011;61865;50.232;18.614;2023-04-27T07:03:25;10.90;;;5.22;;
73585;SDS011;61865;50.232;18.614;2023-04-27T07:05:47;13.18;;;6.03;;
73585;SDS011;61865;50.232;18.614;2023-04-27T07:08:10;12.30;;;6.13;;
73585;SDS011;61865;50.232;18.614;2023-04-27T07:10:32;11.27;;;5.85;;
73585;SDS011;61865;50.232;18.614;2023-04-27T07:12:56;13.77;;;5.63;;
73585;SDS011;61865;50.232;18.614;2023-04-27T07:15:17;7.50;;;4.55;;
73585;SDS011;61865;50.232;18.614;2023-04-27T07:17:39;9.93;;;4.57;;
73585;SDS011;61865;50.232;18.614;2023-04-27T07:20:01;13.10;;;5.35;;
73585;SDS011;61865;50.232;18.614;2023-04-27T07:22:25;8.75;;;4.57;;
73585;SDS011;61865;50.232;18.614;2023-04-27T07:24:47;11.57;;;4.68;;
73585;SDS011;61865;50.232;18.614;2023-04-27T07:27:10;9.65;;;4.65;;
73585;SDS011;61865;50.232;18.614;2023-04-27T07:29:33;8.60;;;4.40;;
73585;SDS011;61865;50.232;18.614;2023-04-27T07:31:56;9.48;;;4.13;;
73585;SDS011;61865;50.232;18.614;2023-04-27T07:34:18;8.52;;;3.90;;
73585;SDS011;61865;50.232;18.614;2023-04-27T07:36:40;9.73;;;3.95;;
73585;SDS011;61865;50.232;18.614;2023-04-27T07:39:02;10.65;;;3.83;;
73585;SDS011;61865;50.232;18.614;2023-04-27T07:41:25;9.98;;;5.40;;
73585;SDS011;61865;50.232;18.614;2023-04-27T07:43:48;6.10;;;3.28;;
73585;SDS011;61865;50.232;18.614;2023-04-27T07:46:12;6.18;;;3.42;;
73585;SDS011;61865;50.232;18.614;2023-04-27T07:48:34;12.82;;;3.38;;
73585;SDS011;61865;50.232;18.614;2023-04-27T07:50:55;13.43;;;3.22;;
73585;SDS011;61865;50.232;18.614;2023-04-27T07:53:17;17.50;;;4.03;;
73585;SDS011;61865;50.232;18.614;2023-04-27T07:55:39;8.80;;;3.60;;
73585;SDS011;61865;50.232;18.614;2023-04-27T07:58:03;7.90;;;3.30;;
73585;SDS011;61865;50.232;18.614;2023-04-27T08:00:25;11.73;;;4.22;;
73585;SDS011;61865;50.232;18.614;2023-04-27T08:02:48;11.65;;;3.72;;
73585;SDS011;61865;50.232;18.614;2023-04-27T08:05:10;10.13;;;3.70;;
73585;SDS011;61865;50.232;18.614;2023-04-27T08:07:32;7.88;;;3.70;;
73585;SDS011;61865;50.232;18.614;2023-04-27T08:09:54;13.02;;;4.47;;
73585;SDS011;61865;50.232;18.614;2023-04-27T08:12:16;9.82;;;3.63;;
73585;SDS011;61865;50.232;18.614;2023-04-27T08:14:38;10.35;;;3.78;;
73585;SDS011;61865;50.232;18.614;2023-04-27T08:17:00;7.65;;;3.63;;
73585;SDS011;61865;50.232;18.614;2023-04-27T08:19:23;11.05;;;3.63;;
73585;SDS011;61865;50.232;18.614;2023-04-27T08:21:46;11.20;;;4.00;;
73585;SDS011;61865;50.232;18.614;2023-04-27T08:24:08;10.55;;;4.68;;
73585;SDS011;61865;50.232;18.614;2023-04-27T08:26:30;9.82;;;4.65;;
73585;SDS011;61865;50.232;18.614;2023-04-27T08:28:52;8.02;;;4.05;;
73585;SDS011;61865;50.232;18.614;2023-04-27T08:31:18;9.70;;;4.13;;
73585;SDS011;61865;50.232;18.614;2023-04-27T08:33:40;11.15;;;4.53;;
73585;SDS011;61865;50.232;18.614;2023-04-27T08:36:04;6.70;;;3.67;;
73585;SDS011;61865;50.232;18.614;2023-04-27T08:38:26;9.80;;;3.95;;
73585;SDS011;61865;50.232;18.614;2023-04-27T08:40:48;13.00;;;3.92;;
73585;SDS011;61865;50.232;18.614;2023-04-27T08:43:10;11.38;;;4.20;;
73585;SDS011;61865;50.232;18.614;2023-04-27T08:45:32;11.35;;;3.90;;
73585;SDS011;61865;50.232;18.614;2023-04-27T08:47:54;12.57;;;4.75;;
73585;SDS011;61865;50.232;18.614;2023-04-27T08:50:16;11.40;;;3.97;;
73585;SDS011;61865;50.232;18.614;2023-04-27T08:52:39;10.18;;;4.80;;
73585;SDS011;61865;50.232;18.614;2023-04-27T08:55:05;8.25;;;4.43;;
73585;SDS011;61865;50.232;18.614;2023-04-27T08:57:28;8.32;;;3.70;;
73585;SDS011;61865;50.232;18.614;2023-04-27T08:59:56;14.68;;;4.20;;
73585;SDS011;61865;50.232;18.614;2023-04-27T09:02:18;9.02;;;4.00;;
73585;SDS011;61865;50.232;18.614;2023-04-27T09:04:41;14.93;;;4.38;;
73585;SDS011;61865;50.232;18.614;2023-04-27T09:07:09;23.35;;;4.35;;
73585;SDS011;61865;50.232;18.614;2023-04-27T09:09:33;8.57;;;4.00;;
73585;SDS011;61865;50.232;18.614;2023-04-27T09:11:55;6.05;;;3.35;;
73585;SDS011;61865;50.232;18.614;2023-04-27T09:14:17;11.00;;;3.65;;
73585;SDS011;61865;50.232;18.614;2023-04-27T09:16:41;10.70;;;3.72;;
73585;SDS011;61865;50.232;18.614;2023-04-27T09:19:03;9.25;;;3.80;;
73585;SDS011;61865;50.232;18.614;2023-04-27T09:21:26;8.73;;;3.97;;
73585;SDS011;61865;50.232;18.614;2023-04-27T09:23:52;7.70;;;3.67;;
73585;SDS011;61865;50.232;18.614;2023-04-27T09:26:19;11.20;;;3.90;;
73585;SDS011;61865;50.232;18.614;2023-04-27T09:28:46;8.73;;;4.00;;
73585;SDS011;61865;50.232;18.614;2023-04-27T09:31:09;12.82;;;4.25;;
73585;SDS011;61865;50.232;18.614;2023-04-27T09:33:31;7.20;;;4.05;;
73585;SDS011;61865;50.232;18.614;2023-04-27T09:35:55;9.57;;;4.28;;
73585;SDS011;61865;50.232;18.614;2023-04-27T09:38:18;8.20;;;3.40;;
73585;SDS011;61865;50.232;18.614;2023-04-27T09:40:41;7.72;;;3.88;;
73585;SDS011;61865;50.232;18.614;2023-04-27T09:43:05;10.77;;;4.05;;
73585;SDS011;61865;50.232;18.614;2023-04-27T09:45:27;8.70;;;3.25;;
73585;SDS011;61865;50.232;18.614;2023-04-27T09:47:50;12.75;;;3.45;;
73585;SDS011;61865;50.232;18.614;2023-04-27T09:50:15;6.68;;;3.22;;
73585;SDS011;61865;50.232;18.614;2023-04-27T09:52:37;8.63;;;3.35;;
73585;SDS011;61865;50.232;18.614;2023-04-27T09:54:59;6.97;;;3.15;;
73585;SDS011;61865;50.232;18.614;2023-04-27T09:57:22;7.25;;;3.10;;
73585;SDS011;61865;50.232;18.614;2023-04-27T10:00:02;7.78;;;3.13;;
73585;SDS011;61865;50.232;18.614;2023-04-27T10:02:38;6.32;;;3.00;;
73585;SDS011;61865;50.232;18.614;2023-04-27T10:05:27;7.30;;;3.20;;
73585;SDS011;61865;50.232;18.614;2023-04-27T10:07:57;12.60;;;3.30;;
73585;SDS011;61865;50.232;18.614;2023-04-27T10:10:19;6.55;;;3.35;;
73585;SDS011;61865;50.232;18.614;2023-04-27T10:12:41;8.68;;;3.90;;
73585;SDS011;61865;50.232;18.614;2023-04-27T10:15:12;10.68;;;3.75;;
73585;SDS011;61865;50.232;18.614;2023-04-27T10:17:35;6.57;;;3.67;;
73585;SDS011;61865;50.232;18.614;2023-04-27T10:19:57;8.93;;;3.20;;
73585;SDS011;61865;50.232;18.614;2023-04-27T10:22:20;6.30;;;3.45;;
73585;SDS011;61865;50.232;18.614;2023-04-27T10:24:42;9.60;;;3.55;;
73585;SDS011;61865;50.232;18.614;2023-04-27T10:27:10;9.30;;;4.05;;
73585;SDS011;61865;50.232;18.614;2023-04-27T10:29:38;10.15;;;4.13;;
73585;SDS011;61865;50.232;18.614;2023-04-27T10:32:05;9.00;;;3.47;;
73585;SDS011;61865;50.232;18.614;2023-04-27T10:34:28;9.00;;;4.00;;
73585;SDS011;61865;50.232;18.614;2023-04-27T10:37:03;6.88;;;3.50;;
73585;SDS011;61865;50.232;18.614;2023-04-27T10:39:31;8.45;;;4.45;;
73585;SDS011;61865;50.232;18.614;2023-04-27T10:41:55;7.07;;;4.32;;
73585;SDS011;61865;50.232;18.614;2023-04-27T10:44:18;7.13;;;4.53;;
73585;SDS011;61865;50.232;18.614;2023-04-27T10:46:54;8.15;;;4.10;;
73585;SDS011;61865;50.232;18.614;2023-04-27T10:49:18;9.82;;;4.10;;
73585;SDS011;61865;50.232;18.614;2023-04-27T10:51:40;8.30;;;3.75;;
73585;SDS011;61865;50.232;18.614;2023-04-27T10:54:02;10.73;;;4.10;;
73585;SDS011;61865;50.232;18.614;2023-04-27T10:56:27;8.50;;;4.22;;
73585;SDS011;61865;50.232;18.614;2023-04-27T10:58:49;8.60;;;3.50;;
73585;SDS011;61865;50.232;18.614;2023-04-27T11:01:21;5.93;;;3.20;;
73585;SDS011;61865;50.232;18.614;2023-04-27T11:03:53;5.47;;;2.97;;
73585;SDS011;61865;50.232;18.614;2023-04-27T11:06:16;6.95;;;3.72;;
73585;SDS011;61865;50.232;18.614;2023-04-27T11:08:42;10.07;;;3.90;;
73585;SDS011;61865;50.232;18.614;2023-04-27T11:11:04;11.40;;;4.20;;
73585;SDS011;61865;50.232;18.614;2023-04-27T11:13:28;6.32;;;3.63;;
73585;SDS011;61865;50.232;18.614;2023-04-27T11:15:52;9.95;;;3.95;;
73585;SDS011;61865;50.232;18.614;2023-04-27T11:18:16;11.73;;;4.20;;
73585;SDS011;61865;50.232;18.614;2023-04-27T11:20:42;6.60;;;3.88;;
73585;SDS011;61865;50.232;18.614;2023-04-27T11:23:06;7.50;;;3.78;;
73585;SDS011;61865;50.232;18.614;2023-04-27T11:25:30;7.70;;;3.80;;
73585;SDS011;61865;50.232;18.614;2023-04-27T11:27:52;8.93;;;3.47;;
73585;SDS011;61865;50.232;18.614;2023-04-27T11:30:19;8.40;;;3.75;;
73585;SDS011;61865;50.232;18.614;2023-04-27T11:32:42;12.32;;;4.00;;
73585;SDS011;61865;50.232;18.614;2023-04-27T11:35:04;8.40;;;4.22;;
73585;SDS011;61865;50.232;18.614;2023-04-27T11:37:27;9.65;;;3.95;;
73585;SDS011;61865;50.232;18.614;2023-04-27T11:39:51;12.60;;;3.95;;
73585;SDS011;61865;50.232;18.614;2023-04-27T11:42:15;9.27;;;4.47;;
73585;SDS011;61865;50.232;18.614;2023-04-27T11:44:38;7.43;;;4.43;;
73585;SDS011;61865;50.232;18.614;2023-04-27T11:47:00;7.65;;;3.92;;
73585;SDS011;61865;50.232;18.614;2023-04-27T11:49:24;9.40;;;4.63;;
73585;SDS011;61865;50.232;18.614;2023-04-27T11:51:46;9.15;;;4.18;;
73585;SDS011;61865;50.232;18.614;2023-04-27T11:54:08;10.57;;;4.85;;
73585;SDS011;61865;50.232;18.614;2023-04-27T11:56:38;14.50;;;4.57;;
73585;SDS011;61865;50.232;18.614;2023-04-27T11:59:02;12.20;;;4.45;;
73585;SDS011;61865;50.232;18.614;2023-04-27T12:01:24;6.63;;;4.15;;
73585;SDS011;61865;50.232;18.614;2023-04-27T12:03:46;9.32;;;4.50;;
73585;SDS011;61865;50.232;18.614;2023-04-27T12:06:11;10.90;;;4.18;;
73585;SDS011;61865;50.232;18.614;2023-04-27T12:08:33;8.98;;;4.40;;
73585;SDS011;61865;50.232;18.614;2023-04-27T12:10:55;11.60;;;4.53;;
73585;SDS011;61865;50.232;18.614;2023-04-27T12:13:20;8.15;;;4.13;;
73585;SDS011;61865;50.232;18.614;2023-04-27T12:15:42;8.73;;;4.00;;
73585;SDS011;61865;50.232;18.614;2023-04-27T12:18:04;7.45;;;3.97;;
73585;SDS011;61865;50.232;18.614;2023-04-27T12:20:26;12.20;;;3.72;;
73585;SDS011;61865;50.232;18.614;2023-04-27T12:22:48;8.90;;;4.10;;
73585;SDS011;61865;50.232;18.614;2023-04-27T12:25:10;6.22;;;3.95;;
73585;SDS011;61865;50.232;18.614;2023-04-27T12:27:32;11.90;;;4.03;;
73585;SDS011;61865;50.232;18.614;2023-04-27T12:29:56;7.38;;;4.00;;
73585;SDS011;61865;50.232;18.614;2023-04-27T12:32:19;8.45;;;4.53;;
73585;SDS011;61865;50.232;18.614;2023-04-27T12:34:44;8.27;;;3.78;;
73585;SDS011;61865;50.232;18.614;2023-04-27T12:37:07;8.32;;;4.80;;
73585;SDS011;61865;50.232;18.614;2023-04-27T12:39:29;6.55;;;3.70;;
73585;SDS011;61865;50.232;18.614;2023-04-27T12:41:51;9.20;;;4.32;;
73585;SDS011;61865;50.232;18.614;2023-04-27T12:44:14;7.35;;;3.40;;
73585;SDS011;61865;50.232;18.614;2023-04-27T12:46:38;8.98;;;3.50;;
73585;SDS011;61865;50.232;18.614;2023-04-27T12:49:00;6.63;;;3.20;;
73585;SDS011;61865;50.232;18.614;2023-04-27T12:51:22;7.15;;;3.60;;
73585;SDS011;61865;50.232;18.614;2023-04-27T12:53:44;7.70;;;4.05;;
73585;SDS011;61865;50.232;18.614;2023-04-27T12:56:06;4.93;;;3.28;;
73585;SDS011;61865;50.232;18.614;2023-04-27T12:58:28;5.50;;;3.00;;
73585;SDS011;61865;50.232;18.614;2023-04-27T13:00:50;7.57;;;2.88;;
73585;SDS011;61865;50.232;18.614;2023-04-27T13:03:13;9.43;;;3.58;;
73585;SDS011;61865;50.232;18.614;2023-04-27T13:05:35;8.05;;;3.47;;
73585;SDS011;61865;50.232;18.614;2023-04-27T13:07:58;8.02;;;3.22;;
73585;SDS011;61865;50.232;18.614;2023-04-27T13:10:20;7.38;;;4.03;;
73585;SDS011;61865;50.232;18.614;2023-04-27T13:12:42;9.20;;;4.15;;
73585;SDS011;61865;50.232;18.614;2023-04-27T13:15:04;10.38;;;4.25;;
73585;SDS011;61865;50.232;18.614;2023-04-27T13:17:27;7.72;;;4.00;;
73585;SDS011;61865;50.232;18.614;2023-04-27T13:19:51;10.57;;;3.70;;
73585;SDS011;61865;50.232;18.614;2023-04-27T13:22:12;6.82;;;3.83;;
73585;SDS011;61865;50.232;18.614;2023-04-27T13:24:35;4.72;;;3.03;;
73585;SDS011;61865;50.232;18.614;2023-04-27T13:26:57;5.80;;;3.65;;
73585;SDS011;61865;50.232;18.614;2023-04-27T13:29:19;9.23;;;3.33;;
73585;SDS011;61865;50.232;18.614;2023-04-27T13:31:43;7.13;;;3.70;;
73585;SDS011;61865;50.232;18.614;2023-04-27T13:34:05;10.07;;;4.47;;
73585;SDS011;61865;50.232;18.614;2023-04-27T13:36:31;6.20;;;3.15;;
73585;SDS011;61865;50.232;18.614;2023-04-27T13:38:53;7.43;;;3.47;;
73585;SDS011;61865;50.232;18.614;2023-04-27T13:41:15;6.60;;;3.38;;
73585;SDS011;61865;50.232;18.614;2023-04-27T13:43:37;6.57;;;3.30;;
73585;SDS011;61865;50.232;18.614;2023-04-27T13:45:59;8.05;;;3.20;;
73585;SDS011;61865;50.232;18.614;2023-04-27T13:48:21;6.45;;;3.00;;
73585;SDS011;61865;50.232;18.614;2023-04-27T13:50:44;10.38;;;3.63;;
73585;SDS011;61865;50.232;18.614;2023-04-27T13:53:07;9.95;;;3.60;;
73585;SDS011;61865;50.232;18.614;2023-04-27T13:55:29;8.68;;;3.63;;
73585;SDS011;61865;50.232;18.614;2023-04-27T13:57:51;8.75;;;3.72;;